sensor_id;sensor_type;location;lat;lon;timestamp;temperature;humidity
18593;DHT22;9426;54.118;17.948;2023-03-01T00:04:20;-1.40;99.90
18593;DHT22;9426;54.118;17.948;2023-03-01T00:09:43;-1.30;99.90
18593;DHT22;9426;54.118;17.948;2023-03-01T00:15:09;-1.30;99.90
18593;DHT22;9426;54.118;17.948;2023-03-01T00:20:33;-1.30;99.90
18593;DHT22;9426;54.118;17.948;2023-03-01T00:25:57;-1.40;99.90
18593;DHT22;9426;54.118;17.948;2023-03-01T00:31:24;-1.40;99.90
18593;DHT22;9426;54.118;17.948;2023-03-01T00:36:48;-1.40;99.90
18593;DHT22;9426;54.118;17.948;2023-03-01T00:42:11;-1.20;99.90
18593;DHT22;9426;54.118;17.948;2023-03-01T00:47:36;-1.10;99.90
18593;DHT22;9426;54.118;17.948;2023-03-01T00:53:00;-1.00;99.90
18593;DHT22;9426;54.118;17.948;2023-03-01T00:58:24;-1.00;99.90
18593;DHT22;9426;54.118;17.948;2023-03-01T01:03:50;-1.20;99.90
18593;DHT22;9426;54.118;17.948;2023-03-01T01:09:16;-1.20;99.90
18593;DHT22;9426;54.118;17.948;2023-03-01T01:14:40;-1.30;99.90
18593;DHT22;9426;54.118;17.948;2023-03-01T01:20:06;-1.30;99.90
18593;DHT22;9426;54.118;17.948;2023-03-01T01:25:30;-1.30;99.90
18593;DHT22;9426;54.118;17.948;2023-03-01T01:30:56;-1.40;99.90
18593;DHT22;9426;54.118;17.948;2023-03-01T01:36:22;-1.40;99.90
18593;DHT22;9426;54.118;17.948;2023-03-01T01:41:46;-1.60;99.90
18593;DHT22;9426;54.118;17.948;2023-03-01T01:47:14;-1.50;99.90
18593;DHT22;9426;54.118;17.948;2023-03-01T01:52:42;-1.40;99.90
18593;DHT22;9426;54.118;17.948;2023-03-01T01:58:07;-1.50;99.90
18593;DHT22;9426;54.118;17.948;2023-03-01T02:03:33;-1.40;99.90
18593;DHT22;9426;54.118;17.948;2023-03-01T02:09:09;-1.40;99.90
18593;DHT22;9426;54.118;17.948;2023-03-01T02:14:35;-1.30;99.90
18593;DHT22;9426;54.118;17.948;2023-03-01T02:20:12;-1.30;99.90
18593;DHT22;9426;54.118;17.948;2023-03-01T02:25:47;-1.30;99.90
18593;DHT22;9426;54.118;17.948;2023-03-01T02:31:17;-1.10;99.90
18593;DHT22;9426;54.118;17.948;2023-03-01T02:37:01;-1.10;99.90
18593;DHT22;9426;54.118;17.948;2023-03-01T02:42:30;-1.20;99.90
18593;DHT22;9426;54.118;17.948;2023-03-01T02:47:57;-1.20;99.90
18593;DHT22;9426;54.118;17.948;2023-03-01T02:53:27;-1.10;99.90
18593;DHT22;9426;54.118;17.948;2023-03-01T02:58:56;-1.00;99.90
18593;DHT22;9426;54.118;17.948;2023-03-01T03:04:25;-0.90;99.90
18593;DHT22;9426;54.118;17.948;2023-03-01T03:09:49;-0.90;99.90
18593;DHT22;9426;54.118;17.948;2023-03-01T03:15:12;-0.80;99.90
18593;DHT22;9426;54.118;17.948;2023-03-01T03:20:39;-0.70;99.90
18593;DHT22;9426;54.118;17.948;2023-03-01T03:26:04;-0.60;99.90
18593;DHT22;9426;54.118;17.948;2023-03-01T03:31:28;-0.50;99.90
18593;DHT22;9426;54.118;17.948;2023-03-01T03:36:55;-0.30;99.90
18593;DHT22;9426;54.118;17.948;2023-03-01T03:42:21;-0.20;99.90
18593;DHT22;9426;54.118;17.948;2023-03-01T03:47:45;-0.10;99.90
18593;DHT22;9426;54.118;17.948;2023-03-01T03:53:11;0.10;99.90
18593;DHT22;9426;54.118;17.948;2023-03-01T03:58:36;0.10;99.90
18593;DHT22;9426;54.118;17.948;2023-03-01T04:03:59;0.10;99.90
18593;DHT22;9426;54.118;17.948;2023-03-01T04:09:27;0.20;99.90
18593;DHT22;9426;54.118;17.948;2023-03-01T04:14:51;0.10;99.90
18593;DHT22;9426;54.118;17.948;2023-03-01T04:20:18;0.20;99.90
18593;DHT22;9426;54.118;17.948;2023-03-01T04:25:49;0.30;99.90
18593;DHT22;9426;54.118;17.948;2023-03-01T04:31:18;0.20;99.90
18593;DHT22;9426;54.118;17.948;2023-03-01T04:36:43;0.30;99.90
18593;DHT22;9426;54.118;17.948;2023-03-01T04:42:08;0.20;99.90
18593;DHT22;9426;54.118;17.948;2023-03-01T04:47:32;0.20;99.90
18593;DHT22;9426;54.118;17.948;2023-03-01T04:52:56;0.20;99.90
18593;DHT22;9426;54.118;17.948;2023-03-01T04:58:22;0.20;99.90
18593;DHT22;9426;54.118;17.948;2023-03-01T05:03:47;0.20;99.90
18593;DHT22;9426;54.118;17.948;2023-03-01T05:09:12;0.20;99.90
18593;DHT22;9426;54.118;17.948;2023-03-01T05:14:37;0.30;99.90
18593;DHT22;9426;54.118;17.948;2023-03-01T05:20:02;0.30;99.90
18593;DHT22;9426;54.118;17.948;2023-03-01T05:25:29;0.20;99.90
18593;DHT22;9426;54.118;17.948;2023-03-01T05:30:57;0.30;99.90
18593;DHT22;9426;54.118;17.948;2023-03-01T05:36:21;0.20;99.90
18593;DHT22;9426;54.118;17.948;2023-03-01T05:41:45;0.20;99.90
18593;DHT22;9426;54.118;17.948;2023-03-01T05:47:10;0.30;99.90
18593;DHT22;9426;54.118;17.948;2023-03-01T05:52:33;0.30;99.90
18593;DHT22;9426;54.118;17.948;2023-03-01T05:57:59;0.30;99.90
18593;DHT22;9426;54.118;17.948;2023-03-01T06:03:25;0.30;99.90
18593;DHT22;9426;54.118;17.948;2023-03-01T06:08:49;0.40;99.90
18593;DHT22;9426;54.118;17.948;2023-03-01T06:14:13;0.40;99.90
18593;DHT22;9426;54.118;17.948;2023-03-01T06:19:39;0.50;99.90
18593;DHT22;9426;54.118;17.948;2023-03-01T06:25:03;0.50;99.90
18593;DHT22;9426;54.118;17.948;2023-03-01T06:30:28;0.50;99.90
18593;DHT22;9426;54.118;17.948;2023-03-01T06:35:54;0.60;99.90
18593;DHT22;9426;54.118;17.948;2023-03-01T06:41:18;0.60;99.90
18593;DHT22;9426;54.118;17.948;2023-03-01T06:46:41;0.70;99.90
18593;DHT22;9426;54.118;17.948;2023-03-01T06:52:07;0.70;99.90
18593;DHT22;9426;54.118;17.948;2023-03-01T06:57:31;0.70;99.90
18593;DHT22;9426;54.118;17.948;2023-03-01T07:02:56;0.80;99.90
18593;DHT22;9426;54.118;17.948;2023-03-01T07:08:22;0.80;99.90
18593;DHT22;9426;54.118;17.948;2023-03-01T07:13:46;0.80;99.90
18593;DHT22;9426;54.118;17.948;2023-03-01T07:19:10;1.00;99.90
18593;DHT22;9426;54.118;17.948;2023-03-01T07:24:35;1.20;99.90
18593;DHT22;9426;54.118;17.948;2023-03-01T07:29:59;1.30;99.90
18593;DHT22;9426;54.118;17.948;2023-03-01T07:35:24;1.20;99.90
18593;DHT22;9426;54.118;17.948;2023-03-01T07:40:49;1.30;99.90
18593;DHT22;9426;54.118;17.948;2023-03-01T07:46:13;1.30;99.90
18593;DHT22;9426;54.118;17.948;2023-03-01T07:51:37;1.40;99.90
18593;DHT22;9426;54.118;17.948;2023-03-01T07:57:02;1.50;99.90
18593;DHT22;9426;54.118;17.948;2023-03-01T08:02:25;1.50;99.90
18593;DHT22;9426;54.118;17.948;2023-03-01T08:07:49;1.60;99.90
18593;DHT22;9426;54.118;17.948;2023-03-01T08:13:15;1.80;99.90
18593;DHT22;9426;54.118;17.948;2023-03-01T08:18:44;2.00;99.90
18593;DHT22;9426;54.118;17.948;2023-03-01T08:24:08;2.20;99.90
18593;DHT22;9426;54.118;17.948;2023-03-01T08:29:34;2.20;99.90
18593;DHT22;9426;54.118;17.948;2023-03-01T08:34:58;2.10;99.90
18593;DHT22;9426;54.118;17.948;2023-03-01T08:40:22;2.20;99.90
18593;DHT22;9426;54.118;17.948;2023-03-01T08:45:48;2.30;99.90
18593;DHT22;9426;54.118;17.948;2023-03-01T08:51:14;2.40;99.90
18593;DHT22;9426;54.118;17.948;2023-03-01T08:56:41;2.40;99.90
18593;DHT22;9426;54.118;17.948;2023-03-01T09:02:11;2.60;99.90
18593;DHT22;9426;54.118;17.948;2023-03-01T09:07:36;2.70;99.90
18593;DHT22;9426;54.118;17.948;2023-03-01T09:12:59;2.70;99.90
18593;DHT22;9426;54.118;17.948;2023-03-01T09:18:25;2.60;99.90
18593;DHT22;9426;54.118;17.948;2023-03-01T09:23:49;3.00;99.90
18593;DHT22;9426;54.118;17.948;2023-03-01T09:29:13;3.10;99.90
18593;DHT22;9426;54.118;17.948;2023-03-01T09:34:39;3.30;99.90
18593;DHT22;9426;54.118;17.948;2023-03-01T09:40:26;3.30;99.90
18593;DHT22;9426;54.118;17.948;2023-03-01T09:45:53;3.20;99.90
18593;DHT22;9426;54.118;17.948;2023-03-01T09:51:30;3.20;99.90
18593;DHT22;9426;54.118;17.948;2023-03-01T09:57:06;3.20;99.90
18593;DHT22;9426;54.118;17.948;2023-03-01T10:02:39;3.30;99.90
18593;DHT22;9426;54.118;17.948;2023-03-01T10:08:28;3.30;99.90
18593;DHT22;9426;54.118;17.948;2023-03-01T10:13:59;3.30;99.90
18593;DHT22;9426;54.118;17.948;2023-03-01T10:19:29;3.40;99.90
18593;DHT22;9426;54.118;17.948;2023-03-01T10:24:58;3.40;99.90
18593;DHT22;9426;54.118;17.948;2023-03-01T10:30:32;3.40;99.90
18593;DHT22;9426;54.118;17.948;2023-03-01T10:35:58;3.50;99.90
18593;DHT22;9426;54.118;17.948;2023-03-01T10:41:23;3.60;99.90
18593;DHT22;9426;54.118;17.948;2023-03-01T10:46:59;3.60;99.90
18593;DHT22;9426;54.118;17.948;2023-03-01T10:52:25;3.60;99.90
18593;DHT22;9426;54.118;17.948;2023-03-01T10:58:07;3.50;99.90
18593;DHT22;9426;54.118;17.948;2023-03-01T11:03:32;3.50;99.90
18593;DHT22;9426;54.118;17.948;2023-03-01T11:08:56;3.60;99.90
18593;DHT22;9426;54.118;17.948;2023-03-01T11:14:23;3.80;99.90
18593;DHT22;9426;54.118;17.948;2023-03-01T11:20:00;3.80;99.90
18593;DHT22;9426;54.118;17.948;2023-03-01T11:25:26;3.90;99.90
18593;DHT22;9426;54.118;17.948;2023-03-01T11:30:55;3.90;99.90
18593;DHT22;9426;54.118;17.948;2023-03-01T11:36:32;4.20;99.90
18593;DHT22;9426;54.118;17.948;2023-03-01T11:42:04;4.20;99.90
18593;DHT22;9426;54.118;17.948;2023-03-01T11:48:05;4.10;99.90
18593;DHT22;9426;54.118;17.948;2023-03-01T11:53:47;4.20;99.90
18593;DHT22;9426;54.118;17.948;2023-03-01T11:59:57;4.30;99.90
18593;DHT22;9426;54.118;17.948;2023-03-01T12:05:48;4.10;99.90
18593;DHT22;9426;54.118;17.948;2023-03-01T12:11:23;4.30;99.90
18593;DHT22;9426;54.118;17.948;2023-03-01T12:17:22;4.50;99.90
18593;DHT22;9426;54.118;17.948;2023-03-01T12:40:50;4.90;99.90
18593;DHT22;9426;54.118;17.948;2023-03-01T12:46:25;4.60;99.90
18593;DHT22;9426;54.118;17.948;2023-03-01T12:51:56;4.70;99.90
18593;DHT22;9426;54.118;17.948;2023-03-01T12:57:26;4.80;99.90
18593;DHT22;9426;54.118;17.948;2023-03-01T13:03:04;4.60;99.90
18593;DHT22;9426;54.118;17.948;2023-03-01T13:08:38;4.50;99.90
18593;DHT22;9426;54.118;17.948;2023-03-01T13:14:46;4.60;99.90
18593;DHT22;9426;54.118;17.948;2023-03-01T13:20:14;4.60;99.90
18593;DHT22;9426;54.118;17.948;2023-03-01T13:26:06;4.60;99.90
18593;DHT22;9426;54.118;17.948;2023-03-01T13:32:01;4.50;99.90
18593;DHT22;9426;54.118;17.948;2023-03-01T13:37:34;4.40;99.90
18593;DHT22;9426;54.118;17.948;2023-03-01T13:43:31;4.50;99.90
18593;DHT22;9426;54.118;17.948;2023-03-01T13:48:57;4.40;99.90
18593;DHT22;9426;54.118;17.948;2023-03-01T13:54:25;4.40;99.90
18593;DHT22;9426;54.118;17.948;2023-03-01T13:59:49;4.10;99.90
18593;DHT22;9426;54.118;17.948;2023-03-01T14:05:15;4.20;99.90
18593;DHT22;9426;54.118;17.948;2023-03-01T14:10:47;4.10;99.90
18593;DHT22;9426;54.118;17.948;2023-03-01T14:16:24;4.10;99.90
18593;DHT22;9426;54.118;17.948;2023-03-01T14:22:04;4.30;99.90
18593;DHT22;9426;54.118;17.948;2023-03-01T14:27:33;4.30;99.90
18593;DHT22;9426;54.118;17.948;2023-03-01T14:33:00;4.30;99.90
18593;DHT22;9426;54.118;17.948;2023-03-01T14:38:31;4.30;99.90
18593;DHT22;9426;54.118;17.948;2023-03-01T14:43:59;4.30;99.90
18593;DHT22;9426;54.118;17.948;2023-03-01T14:49:26;4.20;99.90
18593;DHT22;9426;54.118;17.948;2023-03-01T14:54:54;4.20;99.90
18593;DHT22;9426;54.118;17.948;2023-03-01T15:00:21;4.20;99.90
18593;DHT22;9426;54.118;17.948;2023-03-01T15:05:45;4.10;99.90
18593;DHT22;9426;54.118;17.948;2023-03-01T15:11:20;4.00;99.90
18593;DHT22;9426;54.118;17.948;2023-03-01T15:16:47;3.90;99.90
18593;DHT22;9426;54.118;17.948;2023-03-01T15:22:16;3.80;99.90
18593;DHT22;9426;54.118;17.948;2023-03-01T15:27:45;3.90;99.90
18593;DHT22;9426;54.118;17.948;2023-03-01T15:33:32;3.80;99.90
18593;DHT22;9426;54.118;17.948;2023-03-01T15:38:57;3.60;99.90
18593;DHT22;9426;54.118;17.948;2023-03-01T15:44:28;3.40;99.90
18593;DHT22;9426;54.118;17.948;2023-03-01T15:50:03;3.10;99.90
18593;DHT22;9426;54.118;17.948;2023-03-01T15:55:29;2.80;99.90
18593;DHT22;9426;54.118;17.948;2023-03-01T16:00:56;2.50;99.90
18593;DHT22;9426;54.118;17.948;2023-03-01T16:06:23;2.30;99.90
18593;DHT22;9426;54.118;17.948;2023-03-01T16:11:46;2.00;99.90
18593;DHT22;9426;54.118;17.948;2023-03-01T16:17:12;1.80;99.90
18593;DHT22;9426;54.118;17.948;2023-03-01T16:22:36;1.50;99.90
18593;DHT22;9426;54.118;17.948;2023-03-01T16:28:01;1.30;99.90
18593;DHT22;9426;54.118;17.948;2023-03-01T16:33:32;0.90;99.90
18593;DHT22;9426;54.118;17.948;2023-03-01T16:38:58;0.70;99.90
18593;DHT22;9426;54.118;17.948;2023-03-01T16:44:23;0.50;99.90
18593;DHT22;9426;54.118;17.948;2023-03-01T16:49:51;0.40;99.90
18593;DHT22;9426;54.118;17.948;2023-03-01T16:55:15;0.40;99.90
18593;DHT22;9426;54.118;17.948;2023-03-01T17:00:39;0.50;99.90
18593;DHT22;9426;54.118;17.948;2023-03-01T17:06:07;0.40;99.90
18593;DHT22;9426;54.118;17.948;2023-03-01T17:11:31;0.50;99.90
18593;DHT22;9426;54.118;17.948;2023-03-01T17:16:55;0.50;99.90
18593;DHT22;9426;54.118;17.948;2023-03-01T17:22:21;0.70;99.90
18593;DHT22;9426;54.118;17.948;2023-03-01T17:27:45;0.60;99.90
18593;DHT22;9426;54.118;17.948;2023-03-01T17:33:09;0.40;99.90
18593;DHT22;9426;54.118;17.948;2023-03-01T17:38:35;0.20;99.90
18593;DHT22;9426;54.118;17.948;2023-03-01T17:43:59;0.10;99.90
18593;DHT22;9426;54.118;17.948;2023-03-01T17:49:23;0.20;99.90
18593;DHT22;9426;54.118;17.948;2023-03-01T17:54:48;0.00;99.90
18593;DHT22;9426;54.118;17.948;2023-03-01T18:00:13;0.00;99.90
18593;DHT22;9426;54.118;17.948;2023-03-01T18:05:37;0.00;99.90
18593;DHT22;9426;54.118;17.948;2023-03-01T18:11:02;-0.30;99.90
18593;DHT22;9426;54.118;17.948;2023-03-01T18:16:26;-0.40;99.90
18593;DHT22;9426;54.118;17.948;2023-03-01T18:21:53;-0.40;99.90
18593;DHT22;9426;54.118;17.948;2023-03-01T18:27:18;-0.10;99.90
18593;DHT22;9426;54.118;17.948;2023-03-01T18:32:42;-0.40;99.90
18593;DHT22;9426;54.118;17.948;2023-03-01T18:38:07;-0.40;99.90
18593;DHT22;9426;54.118;17.948;2023-03-01T18:43:32;0.10;99.90
18593;DHT22;9426;54.118;17.948;2023-03-01T18:48:56;0.50;99.90
18593;DHT22;9426;54.118;17.948;2023-03-01T18:54:20;0.80;99.90
18593;DHT22;9426;54.118;17.948;2023-03-01T18:59:45;1.10;99.90
18593;DHT22;9426;54.118;17.948;2023-03-01T19:05:09;1.20;99.90
18593;DHT22;9426;54.118;17.948;2023-03-01T19:10:33;1.30;99.90
18593;DHT22;9426;54.118;17.948;2023-03-01T19:16:04;1.40;99.90
18593;DHT22;9426;54.118;17.948;2023-03-01T19:21:29;1.50;99.90
18593;DHT22;9426;54.118;17.948;2023-03-01T19:26:53;1.50;99.90
18593;DHT22;9426;54.118;17.948;2023-03-01T19:32:20;1.50;99.90
18593;DHT22;9426;54.118;17.948;2023-03-01T19:37:44;1.50;99.90
18593;DHT22;9426;54.118;17.948;2023-03-01T19:43:08;1.50;99.90
18593;DHT22;9426;54.118;17.948;2023-03-01T19:48:33;1.50;99.90
18593;DHT22;9426;54.118;17.948;2023-03-01T19:53:57;1.60;99.90
18593;DHT22;9426;54.118;17.948;2023-03-01T19:59:21;1.60;99.90
18593;DHT22;9426;54.118;17.948;2023-03-01T20:04:47;1.60;99.90
18593;DHT22;9426;54.118;17.948;2023-03-01T20:10:12;1.70;99.90
18593;DHT22;9426;54.118;17.948;2023-03-01T20:15:36;1.60;99.90
18593;DHT22;9426;54.118;17.948;2023-03-01T20:21:05;1.70;99.90
18593;DHT22;9426;54.118;17.948;2023-03-01T20:26:42;1.50;99.90
18593;DHT22;9426;54.118;17.948;2023-03-01T20:32:05;1.30;99.90
18593;DHT22;9426;54.118;17.948;2023-03-01T20:37:33;1.40;99.90
18593;DHT22;9426;54.118;17.948;2023-03-01T20:42:57;1.40;99.90
18593;DHT22;9426;54.118;17.948;2023-03-01T20:48:23;1.30;99.90
18593;DHT22;9426;54.118;17.948;2023-03-01T20:53:55;1.30;99.90
18593;DHT22;9426;54.118;17.948;2023-03-01T20:59:23;1.40;99.90
18593;DHT22;9426;54.118;17.948;2023-03-01T21:04:50;1.30;99.90
18593;DHT22;9426;54.118;17.948;2023-03-01T21:10:17;1.30;99.90
18593;DHT22;9426;54.118;17.948;2023-03-01T21:15:42;1.30;99.90
18593;DHT22;9426;54.118;17.948;2023-03-01T21:21:07;1.40;99.90
18593;DHT22;9426;54.118;17.948;2023-03-01T21:26:33;1.30;99.90
18593;DHT22;9426;54.118;17.948;2023-03-01T21:31:56;1.20;99.90
18593;DHT22;9426;54.118;17.948;2023-03-01T21:37:20;1.30;99.90
18593;DHT22;9426;54.118;17.948;2023-03-01T21:42:50;1.20;99.90
18593;DHT22;9426;54.118;17.948;2023-03-01T21:48:14;1.20;99.90
18593;DHT22;9426;54.118;17.948;2023-03-01T21:53:38;1.10;99.90
18593;DHT22;9426;54.118;17.948;2023-03-01T21:59:03;1.00;99.90
18593;DHT22;9426;54.118;17.948;2023-03-01T22:04:27;1.00;99.90
18593;DHT22;9426;54.118;17.948;2023-03-01T22:09:51;1.10;99.90
18593;DHT22;9426;54.118;17.948;2023-03-01T22:15:16;1.00;99.90
18593;DHT22;9426;54.118;17.948;2023-03-01T22:20:40;1.00;99.90
18593;DHT22;9426;54.118;17.948;2023-03-01T22:26:05;1.10;99.90
18593;DHT22;9426;54.118;17.948;2023-03-01T22:31:30;1.00;99.90
18593;DHT22;9426;54.118;17.948;2023-03-01T22:36:55;0.80;99.90
18593;DHT22;9426;54.118;17.948;2023-03-01T22:42:19;0.70;99.90
18593;DHT22;9426;54.118;17.948;2023-03-01T22:47:44;0.70;99.90
18593;DHT22;9426;54.118;17.948;2023-03-01T22:53:08;0.70;99.90
18593;DHT22;9426;54.118;17.948;2023-03-01T22:58:32;0.60;99.90
18593;DHT22;9426;54.118;17.948;2023-03-01T23:03:57;0.50;99.90
18593;DHT22;9426;54.118;17.948;2023-03-01T23:09:23;0.40;99.90
18593;DHT22;9426;54.118;17.948;2023-03-01T23:14:47;0.30;99.90
18593;DHT22;9426;54.118;17.948;2023-03-01T23:20:13;0.20;99.90
18593;DHT22;9426;54.118;17.948;2023-03-01T23:25:36;0.20;99.90
18593;DHT22;9426;54.118;17.948;2023-03-01T23:31:01;0.20;99.90
18593;DHT22;9426;54.118;17.948;2023-03-01T23:36:29;0.10;99.90
18593;DHT22;9426;54.118;17.948;2023-03-01T23:41:53;0.10;99.90
18593;DHT22;9426;54.118;17.948;2023-03-01T23:47:17;0.10;99.90
18593;DHT22;9426;54.118;17.948;2023-03-01T23:52:43;0.00;99.90
18593;DHT22;9426;54.118;17.948;2023-03-01T23:58:06;0.00;99.90
